createdAt,value
2018-02-18T00:00:43.490Z,21.05
2018-02-18T00:03:10.999Z,20.65
2018-02-18T00:05:39.282Z,19.05
2018-02-18T00:08:07.563Z,19.08
2018-02-18T00:10:35.091Z,21.45
2018-02-18T00:13:03.379Z,19.90
2018-02-18T00:15:31.675Z,20.73
2018-02-18T00:17:59.964Z,22.50
2018-02-18T00:20:27.472Z,22.83
2018-02-18T00:22:55.000Z,20.92
2018-02-18T00:25:22.566Z,21.77
2018-02-18T00:27:50.091Z,23.77
2018-02-18T00:30:17.616Z,22.58
2018-02-18T00:32:45.112Z,23.92
2018-02-18T00:35:12.647Z,24.55
2018-02-18T00:37:40.919Z,23.08
2018-02-18T00:40:09.192Z,20.62
2018-02-18T00:42:37.484Z,22.35
2018-02-18T00:45:05.742Z,21.98
2018-02-18T00:47:34.095Z,23.02
2018-02-18T00:50:02.398Z,20.45
2018-02-18T00:52:30.687Z,22.10
2018-02-18T00:54:58.974Z,20.85
2018-02-18T00:57:26.519Z,20.90
2018-02-18T00:59:54.824Z,21.50
2018-02-18T01:02:22.348Z,20.37
2018-02-18T01:04:50.665Z,20.60
2018-02-18T01:07:18.176Z,21.08
2018-02-18T01:09:45.680Z,20.37
2018-02-18T01:12:13.209Z,21.98
2018-02-18T01:14:43.761Z,21.08
2018-02-18T01:17:14.906Z,20.88
2018-02-18T01:19:42.401Z,20.80
2018-02-18T01:22:09.915Z,20.52
2018-02-18T01:24:37.451Z,22.62
2018-02-18T01:27:05.730Z,21.30
2018-02-18T01:29:34.587Z,20.95
2018-02-18T01:32:02.095Z,21.00
2018-02-18T01:34:29.609Z,20.98
2018-02-18T01:36:57.128Z,19.85
2018-02-18T01:39:24.730Z,21.70
2018-02-18T01:41:52.231Z,23.25
2018-02-18T01:44:19.768Z,23.08
2018-02-18T01:46:48.041Z,22.17
2018-02-18T01:49:15.595Z,23.27
2018-02-18T01:51:43.094Z,22.27
2018-02-18T01:54:10.614Z,21.50
2018-02-18T01:56:38.124Z,22.52
2018-02-18T01:59:05.630Z,22.55
2018-02-18T02:01:33.932Z,24.55
2018-02-18T02:04:01.435Z,29.70
2018-02-18T02:06:28.956Z,36.75
2018-02-18T02:08:56.480Z,41.90
2018-02-18T02:11:24.023Z,41.78
2018-02-18T02:13:51.523Z,37.80
2018-02-18T02:16:19.031Z,36.28
2018-02-18T02:18:46.555Z,33.67
2018-02-18T02:21:14.054Z,33.80
2018-02-18T02:23:41.592Z,28.52
2018-02-18T02:26:09.128Z,27.27
2018-02-18T02:28:36.638Z,27.20
2018-02-18T02:31:04.150Z,26.00
2018-02-18T02:33:31.661Z,24.75
2018-02-18T02:35:59.200Z,23.90
2018-02-18T02:38:26.698Z,22.73
2018-02-18T02:40:55.003Z,24.90
2018-02-18T02:43:22.528Z,24.05
2018-02-18T02:45:50.790Z,23.02
2018-02-18T02:48:19.102Z,23.50
2018-02-18T02:50:46.627Z,24.52
2018-02-18T02:53:14.124Z,23.58
2018-02-18T02:55:41.741Z,23.65
2018-02-18T02:58:09.239Z,24.75
2018-02-18T03:00:36.728Z,25.20
2018-02-18T03:03:04.270Z,23.70
2018-02-18T03:05:31.771Z,24.85
2018-02-18T03:07:59.288Z,23.62
2018-02-18T03:10:26.805Z,25.42
2018-02-18T03:12:55.117Z,25.50
2018-02-18T03:15:22.630Z,25.50
2018-02-18T03:17:50.150Z,27.20
2018-02-18T03:20:17.671Z,29.45
2018-02-18T03:22:45.187Z,28.87
2018-02-18T03:25:12.728Z,28.02
2018-02-18T03:27:40.230Z,27.50
2018-02-18T03:30:08.549Z,27.08
2018-02-18T03:32:36.084Z,27.27
2018-02-18T03:35:03.603Z,26.98
2018-02-18T03:37:31.131Z,26.48
2018-02-18T03:39:58.664Z,25.95
2018-02-18T03:42:26.178Z,28.00
2018-02-18T03:44:53.684Z,26.52
2018-02-18T03:47:21.238Z,26.75
2018-02-18T03:49:48.745Z,25.50
2018-02-18T03:52:16.254Z,25.73
2018-02-18T03:54:43.772Z,25.08
2018-02-18T03:57:11.283Z,25.17
2018-02-18T03:59:38.799Z,25.73
2018-02-18T04:02:06.294Z,24.63
2018-02-18T04:04:33.816Z,24.35
2018-02-18T04:07:02.134Z,24.58
2018-02-18T04:09:29.677Z,24.42
2018-02-18T04:11:57.204Z,23.33
2018-02-18T04:14:24.725Z,22.48
2018-02-18T04:16:52.251Z,23.80
2018-02-18T04:19:19.769Z,23.70
2018-02-18T04:21:47.288Z,20.50
2018-02-18T04:24:14.823Z,19.75
2018-02-18T04:26:43.087Z,20.98
2018-02-18T04:29:11.369Z,22.00
2018-02-18T04:31:39.653Z,22.65
2018-02-18T04:34:07.933Z,21.27
2018-02-18T04:36:35.454Z,22.62
2018-02-18T04:39:03.002Z,22.37
2018-02-18T04:41:30.525Z,21.35
2018-02-18T04:43:58.048Z,22.37
2018-02-18T04:46:25.541Z,20.80
2018-02-18T04:48:53.055Z,22.35
2018-02-18T04:51:20.546Z,22.92
2018-02-18T04:53:48.059Z,22.13
2018-02-18T04:56:15.567Z,22.77
2018-02-18T04:58:43.079Z,22.70
2018-02-18T05:01:10.594Z,22.80
2018-02-18T05:03:38.128Z,21.73
2018-02-18T05:06:06.410Z,21.90
2018-02-18T05:08:33.915Z,21.52
2018-02-18T05:11:01.457Z,21.87
2018-02-18T05:13:28.965Z,21.70
2018-02-18T05:15:57.232Z,22.55
2018-02-18T05:18:24.776Z,22.13
2018-02-18T05:20:52.282Z,23.60
2018-02-18T05:23:19.807Z,22.75
2018-02-18T05:25:47.313Z,22.75
2018-02-18T05:28:14.830Z,24.48
2018-02-18T05:30:42.366Z,23.77
2018-02-18T05:33:09.881Z,21.87
2018-02-18T05:35:37.382Z,22.52
2018-02-18T05:38:04.925Z,22.60
2018-02-18T05:40:32.409Z,23.12
2018-02-18T05:42:59.954Z,22.92
2018-02-18T05:45:27.455Z,20.92
2018-02-18T05:47:55.725Z,22.13
2018-02-18T05:50:24.038Z,22.02
2018-02-18T05:52:51.578Z,22.30
2018-02-18T05:55:19.080Z,21.52
2018-02-18T05:57:46.614Z,21.67
2018-02-18T06:00:14.907Z,21.20
2018-02-18T06:02:42.428Z,20.90
2018-02-18T06:05:09.947Z,21.10
2018-02-18T06:07:37.638Z,21.67
2018-02-18T06:10:05.919Z,21.70
2018-02-18T06:12:34.225Z,21.20
2018-02-18T06:15:01.727Z,19.67
2018-02-18T06:17:29.266Z,21.17
2018-02-18T06:19:56.796Z,21.60
2018-02-18T06:22:24.300Z,22.13
2018-02-18T06:24:51.833Z,21.23
2018-02-18T06:27:19.336Z,21.15
2018-02-18T06:29:47.636Z,21.35
2018-02-18T06:32:15.137Z,20.42
2018-02-18T06:34:42.633Z,20.95
2018-02-18T06:37:10.925Z,21.08
2018-02-18T06:39:38.439Z,19.50
2018-02-18T06:42:05.936Z,20.25
2018-02-18T06:44:33.468Z,17.77
2018-02-18T06:47:01.915Z,20.50
2018-02-18T06:49:29.427Z,19.02
2018-02-18T06:51:57.721Z,20.30
2018-02-18T06:54:25.251Z,20.10
2018-02-18T06:56:53.531Z,21.85
2018-02-18T06:59:21.830Z,21.27
2018-02-18T07:01:49.345Z,21.40
2018-02-18T07:04:16.858Z,21.37
2018-02-18T07:06:44.387Z,20.10
2018-02-18T07:09:12.667Z,19.90
2018-02-18T07:11:40.973Z,22.08
2018-02-18T07:14:08.473Z,20.98
2018-02-18T07:16:35.996Z,20.17
2018-02-18T07:19:03.488Z,20.20
2018-02-18T07:21:31.011Z,22.00
2018-02-18T07:23:58.542Z,21.12
2018-02-18T07:26:26.067Z,21.55
2018-02-18T07:28:53.603Z,20.35
2018-02-18T07:31:21.116Z,19.98
2018-02-18T07:33:48.612Z,20.75
2018-02-18T07:36:16.127Z,20.05
2018-02-18T07:38:44.386Z,20.90
2018-02-18T07:41:12.673Z,21.50
2018-02-18T07:43:40.946Z,20.92
2018-02-18T07:46:08.466Z,21.90
2018-02-18T07:48:35.967Z,23.40
2018-02-18T07:51:03.471Z,21.05
2018-02-18T07:53:30.989Z,23.25
2018-02-18T07:55:58.540Z,24.10
2018-02-18T07:58:26.814Z,22.25
2018-02-18T08:00:55.103Z,24.15
2018-02-18T08:03:23.401Z,24.67
2018-02-18T08:05:50.933Z,23.62
2018-02-18T08:08:18.469Z,22.58
2018-02-18T08:10:45.980Z,23.02
2018-02-18T08:13:14.224Z,23.27
2018-02-18T08:15:41.757Z,22.90
2018-02-18T08:18:09.280Z,24.10
2018-02-18T08:20:36.793Z,25.40
2018-02-18T08:23:05.057Z,26.60
2018-02-18T08:25:33.361Z,25.30
2018-02-18T08:28:00.876Z,30.48
2018-02-18T08:30:28.380Z,26.70
2018-02-18T08:32:56.657Z,26.98
2018-02-18T08:35:24.160Z,27.20
2018-02-18T08:37:51.689Z,25.42
2018-02-18T08:40:19.203Z,27.65
2018-02-18T08:42:47.511Z,28.80
2018-02-18T08:45:15.068Z,27.40
2018-02-18T08:47:42.593Z,28.25
2018-02-18T08:50:10.936Z,27.58
2018-02-18T08:52:38.487Z,28.77
2018-02-18T08:55:06.071Z,28.27
2018-02-18T08:57:33.599Z,29.12
2018-02-18T09:00:01.253Z,26.67
2018-02-18T09:02:29.551Z,27.10
2018-02-18T09:04:57.043Z,26.85
2018-02-18T09:07:24.575Z,27.92
2018-02-18T09:09:52.093Z,30.30
2018-02-18T09:12:19.627Z,35.15
2018-02-18T09:14:47.929Z,29.25
2018-02-18T09:17:15.485Z,28.80
2018-02-18T09:19:43.025Z,32.78
2018-02-18T09:22:11.288Z,27.73
2018-02-18T09:24:38.817Z,28.02
2018-02-18T09:27:06.340Z,27.10
2018-02-18T09:29:33.886Z,29.35
2018-02-18T09:32:02.205Z,29.95
2018-02-18T09:34:29.760Z,34.45
2018-02-18T09:36:57.303Z,29.63
2018-02-18T09:39:24.825Z,35.25
2018-02-18T09:41:52.359Z,32.55
2018-02-18T09:44:19.853Z,36.60
2018-02-18T09:46:48.153Z,30.20
2018-02-18T09:49:15.672Z,29.12
2018-02-18T09:51:43.199Z,31.00
2018-02-18T09:54:10.703Z,30.02
2018-02-18T09:56:39.011Z,28.48
2018-02-18T09:59:06.532Z,29.58
2018-02-18T10:01:34.835Z,30.60
2018-02-18T10:04:02.372Z,29.95
2018-02-18T10:06:30.692Z,30.40
2018-02-18T10:08:58.228Z,30.45
2018-02-18T10:11:25.739Z,29.83
2018-02-18T10:13:53.277Z,30.75
2018-02-18T10:16:20.816Z,31.70
2018-02-18T10:18:48.329Z,31.40
2018-02-18T10:21:15.840Z,31.08
2018-02-18T10:23:43.339Z,31.23
2018-02-18T10:26:10.853Z,30.05
2018-02-18T10:28:38.352Z,30.23
2018-02-18T10:31:06.827Z,30.48
2018-02-18T10:33:34.337Z,31.45
2018-02-18T10:36:01.919Z,30.95
2018-02-18T10:38:30.118Z,31.85
2018-02-18T10:40:57.659Z,30.73
2018-02-18T10:43:28.139Z,33.28
2018-02-18T10:45:56.444Z,31.30
2018-02-18T10:48:24.075Z,30.02
2018-02-18T10:50:52.379Z,30.30
2018-02-18T10:53:19.911Z,29.70
2018-02-18T10:55:48.203Z,29.17
2018-02-18T10:58:15.736Z,32.63
2018-02-18T11:00:43.267Z,31.58
2018-02-18T11:03:10.988Z,31.73
2018-02-18T11:05:38.530Z,32.38
2018-02-18T11:11:12.279Z,31.20
2018-02-18T11:13:39.802Z,31.65
2018-02-18T11:16:08.081Z,30.88
2018-02-18T11:18:36.393Z,30.00
2018-02-18T11:21:03.904Z,31.80
2018-02-18T11:23:31.440Z,32.13
2018-02-18T11:25:58.940Z,31.70
2018-02-18T11:28:31.016Z,32.10
2018-02-18T11:30:58.574Z,31.00
2018-02-18T11:33:26.164Z,30.30
2018-02-18T11:35:53.763Z,29.50
2018-02-18T11:38:21.215Z,29.05
2018-02-18T11:40:48.721Z,29.77
2018-02-18T11:43:16.265Z,29.50
2018-02-18T11:45:43.853Z,29.87
2018-02-18T11:48:11.369Z,28.55
2018-02-18T11:50:39.658Z,30.23
2018-02-18T11:53:07.976Z,28.25
2018-02-18T11:55:35.486Z,28.90
2018-02-18T11:58:03.784Z,28.95
2018-02-18T12:00:31.324Z,28.92
2018-02-18T12:02:59.647Z,29.12
2018-02-18T12:05:27.910Z,30.73
2018-02-18T12:07:55.447Z,31.27
2018-02-18T12:10:22.992Z,28.83
2018-02-18T12:12:51.336Z,31.70
2018-02-18T12:15:18.856Z,29.15
2018-02-18T12:17:46.395Z,28.80
2018-02-18T12:20:13.913Z,29.80
2018-02-18T12:22:41.456Z,29.23
2018-02-18T12:25:08.978Z,31.25
2018-02-18T12:27:36.493Z,32.20
2018-02-18T12:30:04.031Z,31.15
2018-02-18T12:32:31.561Z,32.15
2018-02-18T12:34:59.106Z,32.63
2018-02-18T12:37:27.415Z,31.85
2018-02-18T12:39:54.948Z,33.95
2018-02-18T12:42:22.539Z,31.65
2018-02-18T12:44:50.054Z,32.25
2018-02-18T12:47:18.364Z,31.35
2018-02-18T12:49:45.868Z,31.05
2018-02-18T12:52:13.395Z,31.50
2018-02-18T12:54:40.933Z,31.70
2018-02-18T12:57:08.481Z,31.85
2018-02-18T12:59:36.001Z,30.70
2018-02-18T13:02:03.629Z,31.25
2018-02-18T13:04:31.342Z,30.83
2018-02-18T13:06:59.615Z,30.08
2018-02-18T13:09:27.967Z,29.80
2018-02-18T13:11:55.512Z,30.55
2018-02-18T13:14:23.100Z,30.85
2018-02-18T13:16:50.606Z,30.10
2018-02-18T13:19:18.897Z,30.15
2018-02-18T13:21:46.444Z,29.80
2018-02-18T13:24:13.958Z,29.07
2018-02-18T13:26:42.645Z,28.50
2018-02-18T13:29:11.077Z,27.40
2018-02-18T13:31:38.730Z,29.17
2018-02-18T13:34:06.322Z,28.97
2018-02-18T13:36:33.829Z,30.03
2018-02-18T13:39:04.520Z,31.27
2018-02-18T13:41:32.077Z,32.30
2018-02-18T13:43:59.614Z,29.07
2018-02-18T13:46:27.142Z,29.77
2018-02-18T13:48:54.797Z,28.75
2018-02-18T13:51:22.371Z,29.40
2018-02-18T13:53:49.911Z,30.33
2018-02-18T13:56:17.480Z,28.15
2018-02-18T13:58:45.033Z,29.50
2018-02-18T14:01:12.616Z,28.97
2018-02-18T14:03:40.141Z,27.50
2018-02-18T14:06:08.478Z,26.65
2018-02-18T14:08:35.994Z,26.07
2018-02-18T14:11:03.528Z,28.07
2018-02-18T14:13:31.868Z,27.20
2018-02-18T14:15:59.428Z,27.25
2018-02-18T14:18:26.981Z,27.45
2018-02-18T14:20:54.510Z,27.87
2018-02-18T14:23:22.083Z,27.00
2018-02-18T14:25:49.605Z,28.48
2018-02-18T14:28:17.891Z,25.62
2018-02-18T14:30:45.453Z,27.10
2018-02-18T14:33:12.976Z,26.42
2018-02-18T14:35:40.538Z,27.17
2018-02-18T14:38:08.102Z,27.70
2018-02-18T14:40:35.668Z,26.85
2018-02-18T14:43:15.924Z,25.98
2018-02-18T14:45:56.164Z,28.00
2018-02-18T14:51:39.089Z,28.25
2018-02-18T14:54:18.686Z,28.62
2018-02-18T14:56:47.769Z,28.87
2018-02-18T14:59:15.315Z,27.73
2018-02-18T15:01:42.843Z,29.08
2018-02-18T15:04:10.359Z,28.48
2018-02-18T15:06:37.917Z,28.35
2018-02-18T15:09:05.431Z,28.50
2018-02-18T15:11:32.979Z,28.48
2018-02-18T15:14:00.508Z,26.62
2018-02-18T15:16:28.828Z,26.95
2018-02-18T15:18:56.401Z,26.40
2018-02-18T15:21:23.899Z,28.20
2018-02-18T15:23:51.430Z,26.77
2018-02-18T15:26:19.737Z,27.23
2018-02-18T15:28:47.291Z,27.55
2018-02-18T15:31:14.799Z,26.15
2018-02-18T15:33:42.354Z,25.52
2018-02-18T15:36:09.878Z,25.20
2018-02-18T15:38:37.429Z,26.80
2018-02-18T15:41:04.944Z,23.98
2018-02-18T15:43:32.507Z,26.23
2018-02-18T15:46:00.068Z,25.15
2018-02-18T15:48:27.636Z,26.40
2018-02-18T15:50:55.928Z,25.08
2018-02-18T15:53:23.442Z,25.55
2018-02-18T15:55:50.989Z,24.40
2018-02-18T15:58:18.501Z,24.27
2018-02-18T16:00:46.055Z,24.25
2018-02-18T16:03:14.350Z,22.87
2018-02-18T16:05:41.905Z,24.02
2018-02-18T16:08:09.423Z,22.33
2018-02-18T16:10:36.958Z,24.83
2018-02-18T16:13:04.496Z,21.62
2018-02-18T16:15:32.037Z,22.17
2018-02-18T16:18:00.355Z,22.40
2018-02-18T16:20:27.876Z,23.08
2018-02-18T16:22:55.467Z,26.55
2018-02-18T16:25:23.032Z,23.15
2018-02-18T16:27:50.548Z,22.80
2018-02-18T16:30:18.954Z,23.17
2018-02-18T16:32:46.528Z,23.45
2018-02-18T16:35:14.075Z,22.25
2018-02-18T16:37:41.573Z,21.52
2018-02-18T16:40:09.109Z,22.87
2018-02-18T16:42:36.661Z,22.23
2018-02-18T16:45:04.185Z,21.17
2018-02-18T16:47:31.710Z,22.73
2018-02-18T16:49:59.224Z,22.90
2018-02-18T16:52:26.739Z,22.17
2018-02-18T16:54:55.058Z,24.83
2018-02-18T16:57:22.578Z,23.75
2018-02-18T16:59:50.868Z,25.05
2018-02-18T17:02:18.415Z,24.70
2018-02-18T17:04:46.686Z,23.80
2018-02-18T17:07:14.972Z,24.35
2018-02-18T17:09:43.283Z,23.20
2018-02-18T17:12:10.832Z,24.08
2018-02-18T17:14:38.325Z,25.98
2018-02-18T17:17:06.592Z,27.23
2018-02-18T17:19:34.149Z,30.02
2018-02-18T17:22:01.718Z,31.10
2018-02-18T17:24:29.262Z,29.42
2018-02-18T17:26:56.790Z,30.80
2018-02-18T17:29:25.121Z,30.83
2018-02-18T17:31:53.376Z,36.03
2018-02-18T17:34:20.909Z,36.78
2018-02-18T17:36:48.442Z,33.10
2018-02-18T17:39:16.743Z,31.95
2018-02-18T17:41:44.260Z,32.80
2018-02-18T17:44:11.824Z,33.80
2018-02-18T17:46:39.375Z,31.27
2018-02-18T17:49:06.874Z,32.58
2018-02-18T17:51:34.453Z,29.70
2018-02-18T17:54:02.688Z,32.03
2018-02-18T17:56:30.975Z,30.85
2018-02-18T17:58:59.251Z,30.88
2018-02-18T18:01:27.564Z,29.87
2018-02-18T18:03:55.494Z,32.63
2018-02-18T18:06:23.524Z,30.10
2018-02-18T18:08:51.267Z,29.00
2018-02-18T18:11:18.934Z,29.37
2018-02-18T18:13:46.537Z,28.10
2018-02-18T18:16:14.071Z,28.15
2018-02-18T18:18:41.650Z,27.95
2018-02-18T18:21:09.243Z,27.65
2018-02-18T18:23:37.508Z,28.75
2018-02-18T18:26:05.836Z,30.95
2018-02-18T18:28:33.479Z,29.20
2018-02-18T18:31:01.363Z,31.92
2018-02-18T18:33:29.025Z,30.37
2018-02-18T18:35:56.589Z,27.73
2018-02-18T18:38:24.123Z,28.23
2018-02-18T18:40:51.901Z,29.00
2018-02-18T18:43:19.428Z,28.17
2018-02-18T18:45:47.007Z,28.65
2018-02-18T18:48:14.552Z,28.00
2018-02-18T18:50:42.553Z,28.75
2018-02-18T18:53:10.233Z,27.25
2018-02-18T18:55:37.818Z,28.17
2018-02-18T18:58:06.122Z,30.25
2018-02-18T19:00:33.799Z,28.85
2018-02-18T19:03:01.349Z,29.67
2018-02-18T19:05:28.863Z,29.37
2018-02-18T19:07:57.153Z,27.90
2018-02-18T19:10:25.435Z,29.48
2018-02-18T19:12:53.751Z,29.77
2018-02-18T19:15:21.648Z,28.95
2018-02-18T19:17:49.444Z,28.27
2018-02-18T19:20:17.028Z,28.00
2018-02-18T19:22:44.707Z,28.30
2018-02-18T19:25:12.429Z,28.62
2018-02-18T19:27:39.964Z,29.10
2018-02-18T19:30:07.559Z,29.85
2018-02-18T19:32:35.141Z,30.70
2018-02-18T19:35:02.748Z,29.60
2018-02-18T19:37:31.091Z,28.10
2018-02-18T19:39:58.674Z,28.55
2018-02-18T19:42:26.194Z,31.05
2018-02-18T19:44:53.876Z,36.47
2018-02-18T19:47:21.400Z,35.65
2018-02-18T19:49:49.004Z,32.85
2018-02-18T19:52:16.557Z,30.92
2018-02-18T19:54:44.483Z,30.15
2018-02-18T19:57:12.071Z,30.90
2018-02-18T19:59:39.629Z,32.92
2018-02-18T20:02:07.158Z,31.37
2018-02-18T20:04:35.126Z,32.22
2018-02-18T20:07:03.833Z,31.33
2018-02-18T20:09:32.254Z,32.92
2018-02-18T20:12:00.559Z,33.20
2018-02-18T20:20:41.056Z,30.23
2018-02-18T20:23:09.375Z,31.17
2018-02-18T20:25:36.967Z,29.17
2018-02-18T20:28:04.519Z,30.55
2018-02-18T20:30:32.224Z,30.40
2018-02-18T20:33:00.701Z,30.98
2018-02-18T20:35:28.508Z,31.75
2018-02-18T20:37:56.112Z,31.15
2018-02-18T20:40:23.625Z,33.97
2018-02-18T20:42:51.638Z,32.58
2018-02-18T20:45:19.268Z,32.83
2018-02-18T20:47:47.033Z,34.65
2018-02-18T20:50:14.656Z,33.30
2018-02-18T20:52:42.328Z,30.98
2018-02-18T20:55:10.790Z,33.28
2018-02-18T20:57:38.706Z,31.67
2018-02-18T21:00:06.297Z,31.30
2018-02-18T21:02:36.372Z,32.35
2018-02-18T21:05:03.912Z,32.35
2018-02-18T21:07:31.509Z,32.33
2018-02-18T21:09:59.347Z,33.10
2018-02-18T21:12:27.060Z,30.30
2018-02-18T21:14:54.898Z,30.55
2018-02-18T21:17:23.215Z,31.85
2018-02-18T21:19:51.481Z,30.70
2018-02-18T21:22:19.298Z,32.67
2018-02-18T21:24:46.877Z,31.27
2018-02-18T21:27:14.673Z,33.15
2018-02-18T21:29:42.248Z,31.95
2018-02-18T21:32:10.583Z,31.52
2018-02-18T21:34:38.146Z,31.45
2018-02-18T21:37:06.804Z,31.37
2018-02-18T21:39:34.637Z,31.75
2018-02-18T21:42:02.220Z,28.77
2018-02-18T21:44:29.956Z,29.92
2018-02-18T21:46:58.311Z,29.15
2018-02-18T21:49:26.676Z,30.60
2018-02-18T21:51:54.196Z,30.10
2018-02-18T21:57:00.761Z,30.80
2018-02-18T21:59:28.365Z,30.17
2018-02-18T22:01:55.939Z,31.23
2018-02-18T22:04:23.545Z,28.45
2018-02-18T22:06:52.106Z,30.70
2018-02-18T22:09:20.034Z,32.55
2018-02-18T22:11:47.598Z,33.17
2018-02-18T22:14:15.114Z,31.52
2018-02-18T22:16:43.563Z,30.12
2018-02-18T22:19:11.545Z,31.58
2018-02-18T22:21:39.437Z,32.25
2018-02-18T22:24:07.804Z,31.23
2018-02-18T22:26:36.112Z,32.95
2018-02-18T22:29:03.629Z,32.80
2018-02-18T22:31:31.449Z,33.75
2018-02-18T22:33:59.087Z,31.95
2018-02-18T22:36:26.646Z,32.72
2018-02-18T22:38:54.160Z,32.38
2018-02-18T22:41:21.679Z,31.08
2018-02-18T22:43:49.184Z,31.62
2018-02-18T22:46:16.712Z,31.37
2018-02-18T22:48:44.206Z,30.02
2018-02-18T22:51:11.745Z,32.13
2018-02-18T22:53:39.238Z,32.08
2018-02-18T22:56:07.500Z,33.50
2018-02-18T22:58:35.784Z,32.90
2018-02-18T23:01:04.073Z,31.23
2018-02-18T23:03:32.350Z,31.95
2018-02-18T23:06:00.629Z,31.90
2018-02-18T23:08:28.156Z,31.23
2018-02-18T23:10:55.652Z,31.80
2018-02-18T23:13:23.179Z,31.95
2018-02-18T23:15:51.441Z,30.48
2018-02-18T23:18:18.970Z,31.20
2018-02-18T23:20:58.360Z,31.35
2018-02-18T23:23:26.639Z,30.30
2018-02-18T23:25:54.946Z,30.83
2018-02-18T23:28:23.223Z,30.10
2018-02-18T23:30:50.727Z,30.33
2018-02-18T23:33:18.240Z,29.12
2018-02-18T23:35:45.755Z,30.00
2018-02-18T23:38:13.256Z,29.20
2018-02-18T23:40:40.782Z,30.25
2018-02-18T23:43:09.048Z,29.25
2018-02-18T23:45:36.531Z,28.38
2018-02-18T23:48:04.047Z,29.73
2018-02-18T23:50:31.667Z,29.87
2018-02-18T23:52:59.181Z,29.75
2018-02-18T23:55:27.479Z,30.58
2018-02-18T23:57:55.011Z,28.70
